KJBR

Jonesboro Municipal Airport

Jonesboro, Arkansas, USA
METAR KJBR 171753Z AUTO VRB03KT 10SM CLR 18/08 A3038 RMK AO2 SLP286 T01830078 10189 20044 50002
Observed Flight Rules
Oct-17 @ 17:53 UTC (43 minutes ago) Visual Flight Rules
Wind Visibility Clouds
Variable at 3 knots 10 miles
  • Clear skies
Temperatures Readings
Current 18°C / 64°F
Dewpoint 8°C / 46°F
Humidity 52%
Altimeter 30.38" Hg
Pressure 1028.6 hPa
Elevation 79
METAR KJBR 171753Z AUTO VRB03KT 10SM CLR 18/08 A3038 RMK AO2 SLP286 T01830078 10189 20044 50002
Observed Flight Rules
Oct-17 @ 17:53 UTC
(43 minutes ago)
VFR
Wind Visibility
Variable at 3 knots 10 miles
Clouds
  • Clear skies
Temperature Dewpoint
18°C / 64°F 8°C / 46°F
Humidity Altimeter Pressure
52% 30.38" Hg 1028.6 hPa